createdAt,value
2023-12-02T00:02:15.836Z,4.13
2023-12-02T00:04:43.315Z,5.72
2023-12-02T00:07:11.497Z,3.40
2023-12-02T00:09:38.799Z,3.47
2023-12-02T00:12:06.416Z,4.20
2023-12-02T00:14:34.331Z,3.28
2023-12-02T00:17:01.661Z,3.85
2023-12-02T00:19:28.974Z,2.88
2023-12-02T00:21:56.385Z,3.83
2023-12-02T00:24:23.671Z,3.60
2023-12-02T00:26:51.018Z,3.70
2023-12-02T00:29:18.258Z,3.53
2023-12-02T00:31:45.895Z,3.10
2023-12-02T00:34:13.250Z,3.65
2023-12-02T00:36:40.557Z,3.80
2023-12-02T00:39:08.163Z,3.92
2023-12-02T00:41:35.639Z,2.70
2023-12-02T00:44:02.906Z,3.70
2023-12-02T00:46:30.283Z,3.53
2023-12-02T00:48:57.683Z,3.38
2023-12-02T00:51:25.160Z,3.55
2023-12-02T00:53:52.475Z,2.90
2023-12-02T00:56:19.822Z,3.20
2023-12-02T00:58:47.085Z,3.33
2023-12-02T01:01:14.526Z,3.40
2023-12-02T01:03:43.110Z,3.70
2023-12-02T01:06:10.469Z,3.30
2023-12-02T01:08:37.905Z,3.05
2023-12-02T01:11:05.397Z,2.70
2023-12-02T01:13:32.735Z,3.53
2023-12-02T01:15:59.957Z,2.80
2023-12-02T01:18:29.133Z,2.95
2023-12-02T01:20:57.360Z,3.28
2023-12-02T01:23:24.662Z,3.13
2023-12-02T01:25:52.005Z,3.95
2023-12-02T01:28:19.349Z,3.58
2023-12-02T01:30:46.579Z,3.08
2023-12-02T01:33:14.012Z,2.70
2023-12-02T01:35:41.274Z,2.75
2023-12-02T01:38:08.586Z,2.80
2023-12-02T01:40:35.869Z,3.28
2023-12-02T01:43:05.013Z,2.95
2023-12-02T01:45:32.553Z,2.80
2023-12-02T01:48:01.487Z,3.20
2023-12-02T01:50:29.745Z,2.53
2023-12-02T01:52:57.621Z,3.38
2023-12-02T01:55:26.706Z,2.95
2023-12-02T01:57:54.033Z,3.53
2023-12-02T02:00:21.377Z,3.55
2023-12-02T02:02:48.739Z,2.92
2023-12-02T02:05:16.644Z,3.72
2023-12-02T02:07:44.077Z,6.03
2023-12-02T02:10:11.434Z,4.05
2023-12-02T02:12:38.673Z,3.75
2023-12-02T02:15:06.362Z,2.50
2023-12-02T02:17:33.868Z,4.15
2023-12-02T02:20:01.166Z,3.15
2023-12-02T02:22:28.524Z,3.60
2023-12-02T02:24:55.850Z,4.43
2023-12-02T02:27:23.144Z,3.58
2023-12-02T02:29:50.605Z,3.38
2023-12-02T02:32:17.970Z,2.80
2023-12-02T02:34:45.249Z,3.45
2023-12-02T02:37:12.461Z,2.80
2023-12-02T02:39:39.718Z,3.63
2023-12-02T02:42:10.383Z,2.70
2023-12-02T02:44:38.051Z,2.97
2023-12-02T02:47:05.943Z,2.60
2023-12-02T02:49:33.390Z,3.38
2023-12-02T02:52:00.664Z,3.25
2023-12-02T02:54:27.948Z,3.58
2023-12-02T02:56:55.417Z,3.10
2023-12-02T02:59:22.734Z,2.70
2023-12-02T03:01:50.285Z,3.13
2023-12-02T03:04:17.613Z,2.67
2023-12-02T03:06:45.115Z,4.35
2023-12-02T03:09:13.435Z,2.58
2023-12-02T03:11:40.892Z,3.03
2023-12-02T03:14:08.211Z,3.38
2023-12-02T03:16:35.598Z,3.15
2023-12-02T03:19:03.105Z,3.53
2023-12-02T03:21:30.504Z,3.13
2023-12-02T03:23:57.888Z,3.53
2023-12-02T03:26:26.013Z,3.58
2023-12-02T03:28:53.700Z,2.83
2023-12-02T03:31:21.177Z,2.90
2023-12-02T03:33:48.545Z,2.70
2023-12-02T03:36:15.902Z,2.67
2023-12-02T03:38:43.247Z,2.97
2023-12-02T03:41:10.598Z,2.83
2023-12-02T03:43:51.632Z,3.22
2023-12-02T03:46:27.806Z,3.65
2023-12-02T03:48:55.108Z,2.92
2023-12-02T03:51:22.468Z,3.45
2023-12-02T03:53:49.806Z,2.47
2023-12-02T03:56:17.098Z,2.92
2023-12-02T03:58:44.540Z,3.22
2023-12-02T04:01:12.248Z,2.85
2023-12-02T04:03:39.682Z,3.63
2023-12-02T04:06:07.427Z,2.95
2023-12-02T04:08:34.847Z,3.10
2023-12-02T04:11:02.162Z,2.80
2023-12-02T04:13:30.018Z,2.65
2023-12-02T04:15:57.335Z,3.33
2023-12-02T04:18:25.265Z,2.67
2023-12-02T04:20:52.728Z,2.85
2023-12-02T04:23:20.048Z,3.15
2023-12-02T04:25:47.282Z,2.65
2023-12-02T04:28:14.699Z,2.90
2023-12-02T04:30:42.069Z,3.00
2023-12-02T04:33:10.093Z,2.67
2023-12-02T04:35:37.689Z,3.83
2023-12-02T04:38:07.783Z,4.57
2023-12-02T04:40:35.218Z,3.92
2023-12-02T04:43:02.502Z,4.10
2023-12-02T04:45:32.154Z,3.05
2023-12-02T04:48:00.810Z,2.92
2023-12-02T04:50:28.498Z,4.07
2023-12-02T04:52:56.561Z,2.90
2023-12-02T04:55:23.820Z,3.42
2023-12-02T04:57:51.299Z,2.90
2023-12-02T05:00:19.215Z,3.85
2023-12-02T05:02:47.000Z,3.03
2023-12-02T05:05:14.587Z,3.65
2023-12-02T05:07:42.647Z,3.65
2023-12-02T05:10:11.384Z,2.95
2023-12-02T05:12:38.921Z,2.67
2023-12-02T05:15:06.774Z,3.22
2023-12-02T05:17:34.246Z,3.92
2023-12-02T05:20:01.652Z,3.03
2023-12-02T05:22:28.913Z,3.97
2023-12-02T05:24:56.304Z,3.10
2023-12-02T05:27:24.046Z,3.25
2023-12-02T05:29:51.530Z,3.10
2023-12-02T05:32:18.913Z,3.90
2023-12-02T05:34:46.305Z,3.60
2023-12-02T05:37:13.564Z,3.00
2023-12-02T05:39:40.844Z,3.28
2023-12-02T05:42:08.961Z,3.40
2023-12-02T05:44:36.195Z,3.95
2023-12-02T05:47:03.652Z,3.05
2023-12-02T05:49:31.012Z,3.53
2023-12-02T05:51:58.447Z,3.35
2023-12-02T05:54:26.020Z,4.47
2023-12-02T05:56:54.388Z,4.22
2023-12-02T05:59:21.934Z,2.90
2023-12-02T06:01:50.184Z,4.00
2023-12-02T06:04:17.541Z,3.58
2023-12-02T06:06:48.974Z,4.28
2023-12-02T06:09:16.696Z,4.00
2023-12-02T06:11:45.033Z,4.13
2023-12-02T06:14:12.434Z,3.75
2023-12-02T06:16:39.731Z,3.45
2023-12-02T06:19:07.195Z,3.55
2023-12-02T06:21:34.465Z,3.28
2023-12-02T06:24:02.182Z,5.43
2023-12-02T06:26:29.673Z,6.22
2023-12-02T06:28:57.165Z,8.70
2023-12-02T06:31:24.353Z,5.68
2023-12-02T06:33:51.735Z,5.57
2023-12-02T06:36:19.091Z,10.20
2023-12-02T06:38:46.842Z,13.38
2023-12-02T06:41:14.220Z,9.38
2023-12-02T06:43:41.746Z,12.95
2023-12-02T06:46:10.351Z,8.88
2023-12-02T06:48:38.009Z,6.68
2023-12-02T06:51:06.218Z,3.50
2023-12-02T06:53:34.376Z,3.75
2023-12-02T06:56:01.727Z,3.13
2023-12-02T06:58:29.158Z,3.92
2023-12-02T07:00:57.132Z,3.63
2023-12-02T07:03:24.479Z,4.05
2023-12-02T07:05:51.910Z,3.95
2023-12-02T07:08:19.461Z,4.47
2023-12-02T07:10:46.853Z,4.13
2023-12-02T07:13:14.298Z,3.25
2023-12-02T07:15:42.218Z,4.15
2023-12-02T07:18:10.022Z,3.65
2023-12-02T07:20:38.156Z,3.95
2023-12-02T07:23:05.375Z,3.30
2023-12-02T07:25:33.209Z,3.95
2023-12-02T07:28:00.463Z,3.83
2023-12-02T07:30:29.010Z,3.17
2023-12-02T07:32:56.533Z,3.28
2023-12-02T07:35:23.976Z,4.43
2023-12-02T07:37:51.412Z,3.67
2023-12-02T07:40:19.079Z,3.88
2023-12-02T07:42:46.681Z,5.13
2023-12-02T07:45:15.707Z,3.60
2023-12-02T07:47:47.786Z,3.85
2023-12-02T07:50:15.298Z,4.78
2023-12-02T07:52:42.705Z,4.15
2023-12-02T07:55:10.071Z,4.80
2023-12-02T07:57:37.774Z,3.83
2023-12-02T08:00:05.803Z,4.03
2023-12-02T08:02:39.572Z,3.53
2023-12-02T08:07:40.351Z,4.47
2023-12-02T08:10:08.348Z,4.25
2023-12-02T08:12:35.593Z,4.88
2023-12-02T08:15:03.231Z,3.72
2023-12-02T08:17:30.498Z,4.00
2023-12-02T08:19:59.250Z,4.72
2023-12-02T08:22:26.819Z,3.47
2023-12-02T08:24:54.814Z,4.00
2023-12-02T08:27:22.924Z,3.70
2023-12-02T08:29:50.296Z,3.90
2023-12-02T08:32:17.753Z,3.50
2023-12-02T08:34:45.560Z,5.03
2023-12-02T08:37:12.912Z,5.20
2023-12-02T08:39:40.224Z,3.30
2023-12-02T08:42:07.513Z,4.78
2023-12-02T08:44:35.120Z,12.38
2023-12-02T08:47:02.764Z,4.50
2023-12-02T08:49:30.255Z,4.18
2023-12-02T08:51:57.831Z,4.55
2023-12-02T08:54:25.265Z,5.88
2023-12-02T08:56:52.530Z,4.32
2023-12-02T08:59:19.865Z,5.80
2023-12-02T09:01:47.332Z,5.35
2023-12-02T09:04:14.687Z,5.45
2023-12-02T09:06:42.171Z,4.55
2023-12-02T09:09:09.950Z,4.68
2023-12-02T09:11:38.180Z,4.75
2023-12-02T09:14:05.618Z,5.10
2023-12-02T09:16:32.997Z,5.32
2023-12-02T09:19:00.824Z,7.32
2023-12-02T09:21:42.718Z,6.90
2023-12-02T09:24:31.420Z,7.78
2023-12-02T09:26:59.750Z,5.90
2023-12-02T09:29:42.894Z,6.53
2023-12-02T09:32:19.192Z,5.40
2023-12-02T09:35:00.338Z,4.95
2023-12-02T09:37:52.452Z,4.72
2023-12-02T09:40:22.526Z,4.75
2023-12-02T09:43:20.101Z,5.75
2023-12-02T09:45:56.434Z,4.95
2023-12-02T09:48:31.356Z,4.65
2023-12-02T09:51:28.764Z,4.97
2023-12-02T09:53:56.159Z,4.35
2023-12-02T09:56:30.032Z,6.45
2023-12-02T09:59:32.427Z,3.92
2023-12-02T10:02:08.473Z,4.95
2023-12-02T10:04:54.495Z,4.25
2023-12-02T10:07:40.213Z,6.50
2023-12-02T10:10:14.999Z,5.65
2023-12-02T10:13:16.242Z,5.35
2023-12-02T10:15:46.611Z,4.88
2023-12-02T10:18:15.858Z,8.65
2023-12-02T10:20:44.673Z,5.40
2023-12-02T10:23:20.735Z,5.03
2023-12-02T10:26:14.802Z,3.80
2023-12-02T10:29:04.382Z,4.05
2023-12-02T10:31:32.532Z,4.15
2023-12-02T10:34:11.829Z,5.50
2023-12-02T10:36:40.541Z,5.20
2023-12-02T10:39:40.011Z,4.45
2023-12-02T10:42:13.191Z,5.68
2023-12-02T10:44:45.412Z,7.63
2023-12-02T10:47:14.072Z,4.55
2023-12-02T10:49:44.294Z,5.20
2023-12-02T10:54:48.614Z,5.47
2023-12-02T10:57:20.037Z,10.40
2023-12-02T10:59:59.404Z,4.30
2023-12-02T11:02:43.245Z,12.88
2023-12-02T11:05:17.540Z,17.33
2023-12-02T11:07:51.972Z,8.57
2023-12-02T11:10:29.494Z,5.05
2023-12-02T11:13:02.994Z,9.05
2023-12-02T11:15:32.610Z,5.95
2023-12-02T11:18:13.357Z,6.18
2023-12-02T11:21:13.012Z,5.88
2023-12-02T11:23:46.141Z,5.00
2023-12-02T11:26:42.048Z,5.50
2023-12-02T11:29:38.287Z,21.35
2023-12-02T11:32:22.575Z,13.63
2023-12-02T11:34:53.133Z,5.28
2023-12-02T11:37:20.404Z,6.57
2023-12-02T11:39:53.540Z,4.15
2023-12-02T11:42:21.373Z,4.07
2023-12-02T11:44:52.616Z,6.80
2023-12-02T11:47:31.876Z,29.20
2023-12-02T11:50:23.927Z,17.98
2023-12-02T11:56:16.437Z,9.73
2023-12-02T11:58:49.574Z,13.35
2023-12-02T12:01:48.390Z,7.65
2023-12-02T12:04:55.037Z,7.82
2023-12-02T12:07:50.374Z,14.13
2023-12-02T12:10:35.162Z,15.88
2023-12-02T12:13:03.839Z,11.50
2023-12-02T12:15:34.188Z,72.05
2023-12-02T12:18:05.743Z,227.45
2023-12-02T12:20:33.284Z,65.40
2023-12-02T12:23:01.645Z,32.80
2023-12-02T12:25:34.870Z,9.85
2023-12-02T12:28:10.546Z,15.70
2023-12-02T12:30:45.266Z,11.73
2023-12-02T12:33:21.870Z,8.52
2023-12-02T12:35:53.168Z,7.72
2023-12-02T12:38:28.701Z,13.20
2023-12-02T12:40:58.142Z,8.52
2023-12-02T12:43:25.541Z,11.88
2023-12-02T12:45:53.972Z,9.25
2023-12-02T12:48:28.337Z,8.60
2023-12-02T12:51:00.710Z,19.58
2023-12-02T12:53:32.810Z,21.60
2023-12-02T12:56:26.556Z,56.80
2023-12-02T12:59:03.687Z,39.53
2023-12-02T13:01:35.351Z,10.10
2023-12-02T13:06:40.265Z,20.10
2023-12-02T13:09:11.052Z,132.45
2023-12-02T13:11:58.365Z,52.93
2023-12-02T13:14:35.368Z,205.70
2023-12-02T13:17:04.505Z,25.15
2023-12-02T13:19:34.899Z,161.48
2023-12-02T13:22:03.396Z,66.03
2023-12-02T13:24:37.304Z,99.47
2023-12-02T13:27:06.710Z,50.30
2023-12-02T13:29:42.157Z,27.80
2023-12-02T13:32:13.165Z,15.98
2023-12-02T13:34:50.849Z,16.52
2023-12-02T13:37:32.212Z,15.70
2023-12-02T13:40:01.728Z,12.35
2023-12-02T13:42:37.543Z,10.00
2023-12-02T13:45:06.704Z,50.42
2023-12-02T13:47:40.525Z,176.05
2023-12-02T13:50:12.856Z,140.45
2023-12-02T13:53:10.424Z,61.88
2023-12-02T13:56:15.856Z,272.27
2023-12-02T13:58:53.598Z,406.23
2023-12-02T14:01:32.762Z,254.63
2023-12-02T14:04:03.696Z,14.52
2023-12-02T14:06:42.801Z,9.50
2023-12-02T14:09:13.722Z,13.73
2023-12-02T14:11:53.143Z,24.93
2023-12-02T14:14:44.663Z,30.60
2023-12-02T14:17:38.371Z,16.05
2023-12-02T14:20:23.967Z,6.60
2023-12-02T14:23:01.277Z,13.50
2023-12-02T14:26:12.951Z,9.00
2023-12-02T14:29:22.027Z,5.70
2023-12-02T14:32:15.296Z,5.65
2023-12-02T14:35:23.833Z,9.00
2023-12-02T14:38:18.494Z,5.18
2023-12-02T14:40:58.065Z,5.03
2023-12-02T14:44:02.633Z,6.30
2023-12-02T14:46:32.104Z,7.32
2023-12-02T14:49:00.517Z,7.65
2023-12-02T14:51:35.578Z,10.52
2023-12-02T14:54:04.959Z,11.70
2023-12-02T14:56:32.614Z,12.52
2023-12-02T14:59:04.874Z,6.30
2023-12-02T15:01:34.195Z,9.20
2023-12-02T15:04:02.380Z,7.03
2023-12-02T15:06:30.889Z,6.35
2023-12-02T15:09:02.892Z,4.25
2023-12-02T15:11:34.382Z,6.13
2023-12-02T15:14:03.429Z,8.05
2023-12-02T15:16:33.220Z,7.18
2023-12-02T15:19:10.560Z,7.10
2023-12-02T15:22:13.381Z,6.35
2023-12-02T15:24:41.944Z,6.22
2023-12-02T15:27:10.516Z,9.27
2023-12-02T15:29:37.982Z,7.43
2023-12-02T15:32:09.739Z,5.80
2023-12-02T15:34:37.162Z,14.82
2023-12-02T15:37:05.035Z,32.35
2023-12-02T15:39:32.657Z,20.25
2023-12-02T15:42:00.030Z,10.23
2023-12-02T15:44:27.381Z,8.68
2023-12-02T15:46:54.605Z,6.07
2023-12-02T15:49:26.519Z,8.07
2023-12-02T15:54:24.305Z,11.13
2023-12-02T15:56:53.476Z,8.85
2023-12-02T15:59:22.109Z,7.82
2023-12-02T16:01:53.681Z,10.35
2023-12-02T16:04:21.432Z,10.38
2023-12-02T16:06:50.550Z,8.75
2023-12-02T16:09:25.222Z,6.40
2023-12-02T16:11:53.872Z,8.88
2023-12-02T16:14:21.956Z,7.22
2023-12-02T16:16:56.933Z,6.55
2023-12-02T16:19:25.948Z,5.88
2023-12-02T16:21:55.122Z,6.45
2023-12-02T16:24:25.874Z,6.38
2023-12-02T16:26:53.991Z,8.90
2023-12-02T16:29:21.587Z,5.72
2023-12-02T16:31:49.149Z,5.93
2023-12-02T16:34:16.810Z,5.75
2023-12-02T16:36:49.924Z,5.45
2023-12-02T16:39:19.934Z,5.68
2023-12-02T16:41:47.761Z,5.18
2023-12-02T16:44:17.734Z,5.40
2023-12-02T16:46:45.710Z,4.53
2023-12-02T16:49:19.969Z,6.10
2023-12-02T16:51:47.808Z,5.80
2023-12-02T16:54:15.887Z,7.30
2023-12-02T16:56:44.246Z,6.93
2023-12-02T16:59:36.821Z,8.30
2023-12-02T17:02:24.538Z,12.82
2023-12-02T17:04:52.582Z,12.55
2023-12-02T17:07:19.985Z,12.70
2023-12-02T17:09:51.692Z,12.02
2023-12-02T17:12:30.625Z,11.07
2023-12-02T17:15:08.377Z,9.30
2023-12-02T17:17:37.039Z,9.80
2023-12-02T17:20:17.022Z,8.70
2023-12-02T17:22:49.712Z,7.93
2023-12-02T17:26:17.460Z,7.85
2023-12-02T17:28:44.911Z,7.50
2023-12-02T17:31:15.610Z,6.38
2023-12-02T17:33:43.268Z,6.78
2023-12-02T17:36:14.677Z,6.38
2023-12-02T17:38:43.046Z,6.65
2023-12-02T17:41:16.773Z,6.60
2023-12-02T17:43:44.405Z,7.13
2023-12-02T17:46:11.828Z,6.38
2023-12-02T17:48:39.719Z,7.20
2023-12-02T17:51:07.731Z,7.78
2023-12-02T17:53:35.017Z,6.45
2023-12-02T17:56:02.584Z,5.88
2023-12-02T17:58:29.836Z,6.68
2023-12-02T18:00:58.059Z,6.72
2023-12-02T18:03:25.825Z,6.95
2023-12-02T18:05:53.160Z,25.38
2023-12-02T18:08:20.534Z,45.40
2023-12-02T18:10:48.356Z,39.25
2023-12-02T18:13:15.776Z,20.20
2023-12-02T18:15:43.101Z,17.98
2023-12-02T18:18:13.397Z,21.40
2023-12-02T18:20:43.942Z,29.65
2023-12-02T18:23:19.130Z,24.80
2023-12-02T18:25:46.845Z,19.70
2023-12-02T18:28:14.099Z,16.90
2023-12-02T18:30:41.581Z,15.38
2023-12-02T18:33:09.081Z,10.65
2023-12-02T18:35:36.563Z,10.65
2023-12-02T18:38:04.135Z,11.20
2023-12-02T18:40:35.267Z,11.55
2023-12-02T18:43:02.604Z,10.55
2023-12-02T18:45:33.118Z,10.40
2023-12-02T18:48:01.196Z,10.02
2023-12-02T18:50:28.647Z,12.68
2023-12-02T18:52:56.825Z,11.63
2023-12-02T18:55:24.414Z,37.05
2023-12-02T18:57:52.201Z,24.38
2023-12-02T19:00:20.046Z,16.60
2023-12-02T19:02:47.521Z,18.48
2023-12-02T19:05:15.032Z,40.10
2023-12-02T19:07:42.351Z,141.13
2023-12-02T19:10:10.166Z,133.90
2023-12-02T19:12:37.531Z,212.93
2023-12-02T19:15:05.684Z,122.72
2023-12-02T19:17:33.033Z,66.03
2023-12-02T19:20:00.617Z,47.05
2023-12-02T19:22:28.112Z,53.80
2023-12-02T19:24:55.413Z,80.13
2023-12-02T19:27:24.201Z,65.93
2023-12-02T19:29:51.406Z,352.58
2023-12-02T19:32:18.813Z,570.45
2023-12-02T19:34:46.079Z,317.70
2023-12-02T19:37:13.447Z,184.88
2023-12-02T19:39:43.304Z,301.75
2023-12-02T19:42:11.107Z,75.55
2023-12-02T19:44:38.562Z,57.33
2023-12-02T19:47:06.314Z,41.65
2023-12-02T19:49:34.986Z,101.00
2023-12-02T19:52:07.016Z,189.77
2023-12-02T19:54:35.017Z,122.18
2023-12-02T19:57:03.857Z,100.15
2023-12-02T19:59:31.865Z,141.10
2023-12-02T20:02:00.578Z,130.73
2023-12-02T20:04:28.196Z,78.15
2023-12-02T20:06:55.631Z,107.88
2023-12-02T20:09:23.391Z,61.45
2023-12-02T20:11:50.815Z,36.95
2023-12-02T20:14:19.593Z,20.20
2023-12-02T20:16:47.088Z,24.00
2023-12-02T20:19:14.820Z,27.42
2023-12-02T20:21:42.645Z,42.25
2023-12-02T20:24:10.164Z,17.83
2023-12-02T20:26:37.535Z,16.63
2023-12-02T20:29:04.895Z,17.10
2023-12-02T20:31:32.892Z,14.43
2023-12-02T20:34:00.486Z,13.70
2023-12-02T20:36:28.144Z,14.23
2023-12-02T20:38:55.796Z,19.92
2023-12-02T20:41:23.100Z,17.33
2023-12-02T20:43:50.540Z,12.88
2023-12-02T20:46:17.938Z,11.27
2023-12-02T20:48:46.127Z,9.82
2023-12-02T20:51:13.676Z,12.25
2023-12-02T20:53:41.389Z,8.68
2023-12-02T20:56:09.204Z,7.55
2023-12-02T20:58:36.600Z,10.98
2023-12-02T21:01:04.136Z,10.15
2023-12-02T21:03:31.569Z,11.38
2023-12-02T21:05:58.955Z,7.63
2023-12-02T21:08:26.279Z,13.18
2023-12-02T21:10:56.951Z,5.05
2023-12-02T21:13:24.352Z,8.27
2023-12-02T21:15:51.805Z,5.68
2023-12-02T21:18:19.336Z,8.32
2023-12-02T21:20:46.736Z,7.78
2023-12-02T21:23:15.478Z,6.45
2023-12-02T21:25:43.527Z,13.40
2023-12-02T21:28:11.583Z,16.08
2023-12-02T21:30:41.890Z,13.98
2023-12-02T21:33:17.781Z,15.52
2023-12-02T21:35:56.882Z,7.00
2023-12-02T21:38:47.598Z,4.18
2023-12-02T21:41:18.516Z,3.83
2023-12-02T21:43:47.472Z,3.83
2023-12-02T21:46:28.353Z,3.40
2023-12-02T21:48:59.193Z,4.35
2023-12-02T21:51:32.595Z,3.45
2023-12-02T21:54:03.112Z,3.97
2023-12-02T21:56:41.293Z,3.42
2023-12-02T21:59:19.887Z,4.18
2023-12-02T22:01:51.095Z,4.03
2023-12-02T22:04:22.727Z,3.90
2023-12-02T22:07:05.380Z,3.80
2023-12-02T22:09:35.149Z,4.13
2023-12-02T22:12:04.792Z,3.58
2023-12-02T22:14:33.019Z,3.42
2023-12-02T22:17:09.930Z,3.60
2023-12-02T22:19:37.440Z,3.70
2023-12-02T22:22:09.349Z,7.70
2023-12-02T22:24:41.120Z,3.47
2023-12-02T22:27:09.449Z,3.17
2023-12-02T22:29:42.383Z,2.33
2023-12-02T22:32:25.191Z,2.60
2023-12-02T22:34:52.853Z,2.45
2023-12-02T22:37:20.408Z,2.80
2023-12-02T22:39:48.093Z,3.28
2023-12-02T22:42:16.645Z,2.80
2023-12-02T22:44:44.100Z,3.20
2023-12-02T22:47:16.077Z,2.63
2023-12-02T22:49:43.741Z,2.33
2023-12-02T22:52:15.500Z,2.50
2023-12-02T22:54:43.269Z,2.40
2023-12-02T22:57:13.445Z,1.52
2023-12-02T22:59:41.240Z,2.75
2023-12-02T23:02:12.486Z,2.17
2023-12-02T23:04:43.229Z,2.72
2023-12-02T23:07:16.588Z,3.58
2023-12-02T23:09:56.001Z,7.75
2023-12-02T23:12:37.380Z,7.18
2023-12-02T23:15:28.622Z,2.75
2023-12-02T23:17:56.074Z,4.88
2023-12-02T23:20:31.280Z,5.57
2023-12-02T23:22:59.100Z,2.50
2023-12-02T23:25:27.694Z,2.05
2023-12-02T23:27:57.067Z,2.10
2023-12-02T23:30:24.421Z,2.60
2023-12-02T23:32:52.792Z,2.10
2023-12-02T23:35:22.476Z,2.40
2023-12-02T23:37:51.269Z,3.03
2023-12-02T23:40:24.885Z,2.25
2023-12-02T23:42:52.946Z,3.03
2023-12-02T23:45:20.243Z,3.17
2023-12-02T23:47:47.878Z,4.25
2023-12-02T23:50:15.737Z,2.72
2023-12-02T23:52:43.059Z,3.63
2023-12-02T23:55:10.683Z,3.90
2023-12-02T23:57:38.398Z,2.30
